createdAt,value
2018-10-09T00:00:05.519Z,11.73
2018-10-09T00:02:34.507Z,12.00
2018-10-09T00:05:03.544Z,11.20
2018-10-09T00:07:32.445Z,12.27
2018-10-09T00:10:01.327Z,11.53
2018-10-09T00:12:30.217Z,11.07
2018-10-09T00:14:59.130Z,11.27
2018-10-09T00:17:28.040Z,12.30
2018-10-09T00:19:56.930Z,12.00
2018-10-09T00:22:25.931Z,11.67
2018-10-09T00:24:54.836Z,11.67
2018-10-09T00:27:23.715Z,11.43
2018-10-09T00:29:52.617Z,11.77
2018-10-09T00:32:21.638Z,11.43
2018-10-09T00:34:50.539Z,11.03
2018-10-09T00:37:19.504Z,11.87
2018-10-09T00:39:48.358Z,12.67
2018-10-09T00:42:17.378Z,11.67
2018-10-09T00:44:46.296Z,11.27
2018-10-09T00:47:15.240Z,11.27
2018-10-09T00:49:44.141Z,11.00
2018-10-09T00:52:13.055Z,10.67
2018-10-09T00:54:41.975Z,10.80
2018-10-09T00:57:11.021Z,11.23
2018-10-09T00:59:39.949Z,9.80
2018-10-09T01:02:08.982Z,9.73
2018-10-09T01:04:37.917Z,10.30
2018-10-09T01:07:07.146Z,10.57
2018-10-09T01:09:36.246Z,9.47
2018-10-09T01:12:05.156Z,9.83
2018-10-09T01:14:34.037Z,9.40
2018-10-09T01:17:03.125Z,8.57
2018-10-09T01:19:32.113Z,9.77
2018-10-09T01:22:01.042Z,8.43
2018-10-09T01:24:29.985Z,9.23
2018-10-09T01:26:58.878Z,9.37
2018-10-09T01:29:27.827Z,8.07
2018-10-09T01:31:56.809Z,8.13
2018-10-09T01:34:25.736Z,8.60
2018-10-09T01:36:54.849Z,8.47
2018-10-09T01:39:23.730Z,8.57
2018-10-09T01:41:52.626Z,8.20
2018-10-09T01:44:21.550Z,7.77
2018-10-09T01:46:50.744Z,7.90
2018-10-09T01:49:19.665Z,7.57
2018-10-09T01:51:48.576Z,7.87
2018-10-09T01:54:17.561Z,7.67
2018-10-09T01:56:46.450Z,7.70
2018-10-09T01:59:15.371Z,7.67
2018-10-09T02:01:44.330Z,7.50
2018-10-09T02:04:13.275Z,7.57
2018-10-09T02:06:42.239Z,8.10
2018-10-09T02:09:17.246Z,8.50
2018-10-09T02:11:48.290Z,9.10
2018-10-09T02:14:17.259Z,8.93
2018-10-09T02:16:46.148Z,7.80
2018-10-09T02:19:15.059Z,9.37
2018-10-09T02:21:43.939Z,8.80
2018-10-09T02:24:12.855Z,9.97
2018-10-09T02:26:41.734Z,10.67
2018-10-09T02:29:10.713Z,10.63
2018-10-09T02:31:39.641Z,10.53
2018-10-09T02:34:08.534Z,11.27
2018-10-09T02:36:37.453Z,10.90
2018-10-09T02:39:08.497Z,10.07
2018-10-09T02:41:38.470Z,10.37
2018-10-09T02:44:07.791Z,10.20
2018-10-09T02:46:36.729Z,10.77
2018-10-09T02:49:05.991Z,11.80
2018-10-09T02:51:34.997Z,10.73
2018-10-09T02:54:04.965Z,10.80
2018-10-09T02:56:33.879Z,10.97
2018-10-09T02:59:02.793Z,10.27
2018-10-09T03:01:31.697Z,10.97
2018-10-09T03:04:00.755Z,10.93
2018-10-09T03:06:29.643Z,12.87
2018-10-09T03:08:58.611Z,11.80
2018-10-09T03:11:27.526Z,12.23
2018-10-09T03:13:56.511Z,12.17
2018-10-09T03:16:25.510Z,12.70
2018-10-09T03:18:54.590Z,12.63
2018-10-09T03:21:24.620Z,13.13
2018-10-09T03:23:53.541Z,13.53
2018-10-09T03:26:22.476Z,13.67
2018-10-09T03:28:51.503Z,15.00
2018-10-09T03:31:20.459Z,14.20
2018-10-09T03:33:49.623Z,14.03
2018-10-09T03:36:18.568Z,14.57
2018-10-09T03:38:47.477Z,14.30
2018-10-09T03:41:16.482Z,15.43
2018-10-09T03:43:45.361Z,14.43
2018-10-09T03:46:14.529Z,15.93
2018-10-09T03:48:43.450Z,14.03
2018-10-09T03:51:12.437Z,14.77
2018-10-09T03:53:41.305Z,15.73
2018-10-09T03:56:10.206Z,16.23
2018-10-09T03:58:39.130Z,14.83
2018-10-09T04:01:08.019Z,14.80
2018-10-09T04:03:37.014Z,14.73
2018-10-09T04:06:05.994Z,14.33
2018-10-09T04:08:34.900Z,13.87
2018-10-09T04:11:03.840Z,13.53
2018-10-09T04:13:32.846Z,13.53
2018-10-09T04:16:01.746Z,13.93
2018-10-09T04:18:30.702Z,14.57
2018-10-09T04:20:59.583Z,13.10
2018-10-09T04:23:28.498Z,12.57
2018-10-09T04:27:00.818Z,14.13
2018-10-09T04:42:29.210Z,13.83
2018-10-09T04:44:58.090Z,13.37
2018-10-09T04:47:32.604Z,14.10
2018-10-09T04:50:01.514Z,13.53
2018-10-09T04:52:30.394Z,12.10
2018-10-09T04:54:59.324Z,13.40
2018-10-09T04:57:28.226Z,12.27
2018-10-09T04:59:57.137Z,11.97
2018-10-09T05:02:26.044Z,13.70
2018-10-09T05:04:54.935Z,13.13
2018-10-09T05:07:24.149Z,14.03
2018-10-09T05:09:53.083Z,13.10
2018-10-09T05:12:21.998Z,12.50
2018-10-09T05:14:50.941Z,13.00
2018-10-09T05:17:19.861Z,14.57
2018-10-09T05:19:48.926Z,13.33
2018-10-09T05:22:17.904Z,13.67
2018-10-09T05:24:46.784Z,12.93
2018-10-09T05:27:15.688Z,13.53
2018-10-09T05:29:44.667Z,13.33
2018-10-09T05:32:13.658Z,12.97
2018-10-09T05:34:49.292Z,13.30
2018-10-09T05:37:18.190Z,13.20
2018-10-09T05:39:47.074Z,13.67
2018-10-09T05:42:15.992Z,12.60
2018-10-09T05:44:45.003Z,13.97
2018-10-09T05:47:14.406Z,12.30
2018-10-09T05:49:43.527Z,13.83
2018-10-09T05:52:12.403Z,12.33
2018-10-09T05:54:41.358Z,12.47
2018-10-09T05:57:10.700Z,12.50
2018-10-09T05:59:39.702Z,13.70
2018-10-09T06:02:09.168Z,13.13
2018-10-09T06:04:38.450Z,14.30
2018-10-09T06:07:07.366Z,14.30
2018-10-09T06:09:36.284Z,14.33
2018-10-09T06:12:05.247Z,15.20
2018-10-09T06:14:34.172Z,16.57
2018-10-09T06:17:03.085Z,15.70
2018-10-09T06:19:32.016Z,14.93
2018-10-09T06:22:01.704Z,16.37
2018-10-09T06:24:30.555Z,15.43
2018-10-09T06:26:59.918Z,14.53
2018-10-09T06:29:29.299Z,15.23
2018-10-09T06:31:58.614Z,14.57
2018-10-09T06:34:27.963Z,14.63
2018-10-09T06:36:57.289Z,16.70
2018-10-09T06:39:26.569Z,14.40
2018-10-09T06:41:55.944Z,15.37
2018-10-09T06:44:25.355Z,15.17
2018-10-09T06:46:54.642Z,15.13
2018-10-09T06:49:29.446Z,15.03
2018-10-09T06:51:59.089Z,14.23
2018-10-09T06:54:28.533Z,14.87
2018-10-09T06:56:57.890Z,15.47
2018-10-09T06:59:27.418Z,16.23
2018-10-09T07:01:56.771Z,15.13
2018-10-09T07:04:26.085Z,14.43
2018-10-09T07:06:55.976Z,14.93
2018-10-09T07:09:25.351Z,15.03
2018-10-09T07:11:54.765Z,15.93
2018-10-09T07:14:24.104Z,14.27
2018-10-09T07:16:53.407Z,14.40
2018-10-09T07:19:22.723Z,15.93
2018-10-09T07:21:52.083Z,14.33
2018-10-09T07:24:21.375Z,15.20
2018-10-09T07:26:50.680Z,14.17
2018-10-09T07:29:20.259Z,14.30
2018-10-09T07:31:49.589Z,14.73
2018-10-09T07:34:18.876Z,13.17
2018-10-09T07:36:48.247Z,14.47
2018-10-09T07:39:17.632Z,14.30
2018-10-09T07:41:47.012Z,14.57
2018-10-09T07:44:16.388Z,14.07
2018-10-09T07:46:45.635Z,13.97
2018-10-09T07:49:14.903Z,12.73
2018-10-09T07:51:44.217Z,14.57
2018-10-09T07:54:13.641Z,13.63
2018-10-09T07:56:43.060Z,13.87
2018-10-09T07:59:12.801Z,14.53
2018-10-09T08:01:42.178Z,13.57
2018-10-09T08:04:11.436Z,13.43
2018-10-09T08:06:40.711Z,14.30
2018-10-09T08:09:11.632Z,14.37
2018-10-09T08:11:40.986Z,14.37
2018-10-09T08:14:10.230Z,13.50
2018-10-09T08:16:39.543Z,12.63
2018-10-09T08:19:08.908Z,14.10
2018-10-09T08:21:38.194Z,12.20
2018-10-09T08:24:07.957Z,12.70
2018-10-09T08:26:37.250Z,13.60
2018-10-09T08:29:06.564Z,12.87
2018-10-09T08:31:35.860Z,11.90
2018-10-09T08:34:05.120Z,12.30
2018-10-09T08:36:34.560Z,13.87
2018-10-09T08:39:04.766Z,13.43
2018-10-09T08:41:34.178Z,11.63
2018-10-09T08:44:03.483Z,12.17
2018-10-09T08:46:32.734Z,12.10
2018-10-09T08:49:02.392Z,11.43
2018-10-09T08:51:31.942Z,11.00
2018-10-09T08:54:01.224Z,12.67
2018-10-09T08:56:30.647Z,11.27
2018-10-09T08:58:59.948Z,11.70
2018-10-09T09:01:29.232Z,11.50
2018-10-09T09:03:58.585Z,11.13
2018-10-09T09:06:27.901Z,10.63
2018-10-09T09:08:57.157Z,10.50
2018-10-09T09:11:26.507Z,10.67
2018-10-09T09:13:55.797Z,9.90
2018-10-09T09:16:25.101Z,9.87
2018-10-09T09:18:54.497Z,10.20
2018-10-09T09:21:23.871Z,10.20
2018-10-09T09:23:53.178Z,11.30
2018-10-09T09:26:22.536Z,10.57
2018-10-09T09:28:51.896Z,10.70
2018-10-09T09:31:21.228Z,10.07
2018-10-09T09:33:50.581Z,9.60
2018-10-09T09:36:19.920Z,10.33
2018-10-09T09:38:49.583Z,12.00
2018-10-09T09:41:19.021Z,10.37
2018-10-09T09:43:48.713Z,9.93
2018-10-09T09:46:18.737Z,10.13
2018-10-09T09:48:48.161Z,9.53
2018-10-09T09:51:17.837Z,9.10
2018-10-09T09:53:47.208Z,9.70
2018-10-09T09:56:16.512Z,10.13
2018-10-09T09:58:46.141Z,9.53
2018-10-09T10:01:15.014Z,9.20
2018-10-09T10:03:44.418Z,9.83
2018-10-09T10:06:13.704Z,9.30
2018-10-09T10:08:43.049Z,9.80
2018-10-09T10:11:12.477Z,9.57
2018-10-09T10:13:41.875Z,8.97
2018-10-09T10:16:11.393Z,9.30
2018-10-09T10:18:40.866Z,9.13
2018-10-09T10:21:10.198Z,9.43
2018-10-09T10:23:39.476Z,9.90
2018-10-09T10:26:08.991Z,8.20
2018-10-09T10:28:38.512Z,8.60
2018-10-09T10:31:08.212Z,8.70
2018-10-09T10:33:37.509Z,8.90
2018-10-09T10:36:07.429Z,8.20
2018-10-09T10:38:36.986Z,9.47
2018-10-09T10:41:06.848Z,8.03
2018-10-09T10:43:36.216Z,8.00
2018-10-09T10:46:05.624Z,8.23
2018-10-09T10:48:34.901Z,7.20
2018-10-09T10:51:04.538Z,8.23
2018-10-09T10:53:34.068Z,7.60
2018-10-09T10:56:03.781Z,8.43
2018-10-09T10:58:33.085Z,9.60
2018-10-09T11:01:02.385Z,9.03
2018-10-09T11:03:31.729Z,9.07
2018-10-09T11:06:01.065Z,9.77
2018-10-09T11:08:30.399Z,10.00
2018-10-09T11:10:59.713Z,9.57
2018-10-09T11:13:29.049Z,9.73
2018-10-09T11:15:58.376Z,9.03
2018-10-09T11:18:27.735Z,8.83
2018-10-09T11:20:57.121Z,9.53
2018-10-09T11:23:26.419Z,8.67
2018-10-09T11:25:55.819Z,8.70
2018-10-09T11:28:25.106Z,8.80
2018-10-09T11:30:54.490Z,10.67
2018-10-09T11:33:25.905Z,8.57
2018-10-09T11:35:55.193Z,9.03
2018-10-09T11:38:24.557Z,8.37
2018-10-09T11:40:54.015Z,7.93
2018-10-09T11:43:23.480Z,7.20
2018-10-09T11:45:52.854Z,6.10
2018-10-09T11:48:22.126Z,7.37
2018-10-09T11:50:51.522Z,7.20
2018-10-09T11:53:20.785Z,7.07
2018-10-09T11:55:50.090Z,7.30
2018-10-09T11:58:19.392Z,7.20
2018-10-09T12:00:50.071Z,6.83
2018-10-09T12:03:19.396Z,6.73
2018-10-09T12:05:48.825Z,6.30
2018-10-09T12:08:17.977Z,6.60
2018-10-09T12:10:47.260Z,6.27
2018-10-09T12:13:16.567Z,5.77
2018-10-09T12:15:45.951Z,5.83
2018-10-09T12:18:15.360Z,5.63
2018-10-09T12:20:44.704Z,5.73
2018-10-09T12:23:19.463Z,6.17
2018-10-09T12:25:54.243Z,6.50
2018-10-09T12:28:23.687Z,6.00
2018-10-09T12:30:53.041Z,5.43
2018-10-09T12:33:22.299Z,6.33
2018-10-09T12:35:51.582Z,6.00
2018-10-09T12:38:20.960Z,6.00
2018-10-09T12:40:50.793Z,5.87
2018-10-09T12:43:20.152Z,6.10
2018-10-09T12:45:49.438Z,6.37
2018-10-09T12:48:18.922Z,5.90
2018-10-09T12:50:48.218Z,6.20
2018-10-09T12:53:17.620Z,6.23
2018-10-09T12:55:46.862Z,5.40
2018-10-09T12:58:16.271Z,5.83
2018-10-09T13:00:45.713Z,5.77
2018-10-09T13:03:15.034Z,5.30
2018-10-09T13:05:44.240Z,5.10
2018-10-09T13:08:13.560Z,6.07
2018-10-09T13:10:42.842Z,5.10
2018-10-09T13:13:12.201Z,4.80
2018-10-09T13:15:41.513Z,5.47
2018-10-09T13:18:10.869Z,5.57
2018-10-09T13:20:40.145Z,5.83
2018-10-09T13:23:09.407Z,6.40
2018-10-09T13:25:38.752Z,6.37
2018-10-09T13:28:08.014Z,6.33
2018-10-09T13:30:37.373Z,7.23
2018-10-09T13:33:06.686Z,6.53
2018-10-09T13:35:36.100Z,6.53
2018-10-09T13:38:05.485Z,6.80
2018-10-09T13:40:34.854Z,7.30
2018-10-09T13:43:04.210Z,5.83
2018-10-09T13:45:33.502Z,6.83
2018-10-09T13:48:02.898Z,7.10
2018-10-09T13:50:32.328Z,6.33
2018-10-09T13:53:01.547Z,6.57
2018-10-09T13:55:30.846Z,6.30
2018-10-09T13:58:00.101Z,5.90
2018-10-09T14:00:29.394Z,6.67
2018-10-09T14:02:59.712Z,6.90
2018-10-09T14:05:29.234Z,6.80
2018-10-09T14:07:58.868Z,7.10
2018-10-09T14:10:28.518Z,6.83
2018-10-09T14:12:57.835Z,6.83
2018-10-09T14:15:27.162Z,5.97
2018-10-09T14:17:56.436Z,6.80
2018-10-09T14:20:25.713Z,5.93
2018-10-09T14:22:55.041Z,5.50
2018-10-09T14:25:24.252Z,6.03
2018-10-09T14:27:53.603Z,5.87
2018-10-09T14:30:22.942Z,6.47
2018-10-09T14:32:52.218Z,6.47
2018-10-09T14:35:22.567Z,6.10
2018-10-09T14:37:51.901Z,6.27
2018-10-09T14:40:21.253Z,6.83
2018-10-09T14:42:50.525Z,5.97
2018-10-09T14:45:19.917Z,7.30
2018-10-09T14:47:49.156Z,7.03
2018-10-09T14:50:18.049Z,7.30
2018-10-09T14:52:52.605Z,6.20
2018-10-09T14:55:27.012Z,7.43
2018-10-09T14:57:55.883Z,6.87
2018-10-09T15:00:24.785Z,7.83
2018-10-09T15:02:53.647Z,7.80
2018-10-09T15:05:22.560Z,7.37
2018-10-09T15:07:51.454Z,6.40
2018-10-09T15:10:20.346Z,8.17
2018-10-09T15:12:49.237Z,7.40
2018-10-09T15:15:18.176Z,7.40
2018-10-09T15:17:47.165Z,7.53
2018-10-09T15:20:16.070Z,7.83
2018-10-09T15:22:44.937Z,8.30
2018-10-09T15:25:13.832Z,8.80
2018-10-09T15:27:42.725Z,8.17
2018-10-09T15:30:17.078Z,8.50
2018-10-09T15:32:46.012Z,14.33
2018-10-09T15:35:14.977Z,10.37
2018-10-09T15:37:43.887Z,9.97
2018-10-09T15:40:12.877Z,8.07
2018-10-09T15:42:41.766Z,9.07
2018-10-09T15:45:10.670Z,9.83
2018-10-09T15:47:39.539Z,9.83
2018-10-09T15:50:08.452Z,9.37
2018-10-09T15:52:37.469Z,9.57
2018-10-09T15:55:06.322Z,8.40
2018-10-09T15:57:35.208Z,9.87
2018-10-09T16:00:04.147Z,10.20
2018-10-09T16:02:33.168Z,28.10
2018-10-09T16:05:02.073Z,10.00
2018-10-09T16:07:31.000Z,9.50
2018-10-09T16:10:00.004Z,9.47
2018-10-09T16:12:30.790Z,11.03
2018-10-09T16:14:59.814Z,9.97
2018-10-09T16:17:28.718Z,11.33
2018-10-09T16:19:58.676Z,10.90
2018-10-09T16:22:27.798Z,11.63
2018-10-09T16:24:56.710Z,12.57
2018-10-09T16:27:25.617Z,11.03
2018-10-09T16:29:54.616Z,11.37
2018-10-09T16:32:23.681Z,11.63
2018-10-09T16:34:52.483Z,23.63
2018-10-09T16:37:21.351Z,11.63
2018-10-09T16:39:50.254Z,10.37
2018-10-09T16:42:19.197Z,11.50
2018-10-09T16:44:48.073Z,12.43
2018-10-09T16:47:22.834Z,10.90
2018-10-09T16:49:51.699Z,11.57
2018-10-09T16:52:20.584Z,11.77
2018-10-09T16:54:49.444Z,12.37
2018-10-09T16:57:18.411Z,11.97
2018-10-09T16:59:47.426Z,11.50
2018-10-09T17:02:16.501Z,12.27
2018-10-09T17:04:45.396Z,11.83
2018-10-09T17:07:14.374Z,12.30
2018-10-09T17:09:43.248Z,13.43
2018-10-09T17:12:12.139Z,13.27
2018-10-09T17:14:41.045Z,12.27
2018-10-09T17:17:09.988Z,12.17
2018-10-09T17:19:38.939Z,12.10
2018-10-09T17:22:07.911Z,11.87
2018-10-09T17:24:36.806Z,12.30
2018-10-09T17:27:05.687Z,12.33
2018-10-09T17:29:34.580Z,12.80
2018-10-09T17:32:03.539Z,13.07
2018-10-09T17:34:32.448Z,13.43
2018-10-09T17:37:01.366Z,12.67
2018-10-09T17:39:30.244Z,12.60
2018-10-09T17:41:59.228Z,12.97
2018-10-09T17:44:28.096Z,11.53
2018-10-09T17:46:57.117Z,13.33
2018-10-09T17:49:25.957Z,13.10
2018-10-09T17:51:54.847Z,13.40
2018-10-09T17:54:23.737Z,13.57
2018-10-09T17:56:52.683Z,13.40
2018-10-09T17:59:21.565Z,12.67
2018-10-09T18:01:50.593Z,12.57
2018-10-09T18:04:19.517Z,12.80
2018-10-09T18:06:48.442Z,12.50
2018-10-09T18:09:17.361Z,12.83
2018-10-09T18:11:46.303Z,12.03
2018-10-09T18:14:15.735Z,11.90
2018-10-09T18:16:44.706Z,11.20
2018-10-09T18:19:13.701Z,11.17
2018-10-09T18:21:42.718Z,10.90
2018-10-09T18:24:11.575Z,11.93
2018-10-09T18:26:40.857Z,12.13
2018-10-09T18:29:09.748Z,12.13
2018-10-09T18:31:38.719Z,10.17
2018-10-09T18:34:07.634Z,10.33
2018-10-09T18:36:36.523Z,10.23
2018-10-09T18:40:12.315Z,10.43
2018-10-09T18:42:41.389Z,10.43
2018-10-09T18:45:10.379Z,11.03
2018-10-09T18:47:41.780Z,11.20
2018-10-09T18:50:11.240Z,10.43
2018-10-09T18:52:40.727Z,9.47
2018-10-09T18:55:11.698Z,9.90
2018-10-09T18:57:40.599Z,10.63
2018-10-09T19:00:10.088Z,10.67
2018-10-09T19:02:39.570Z,11.30
2018-10-09T19:05:09.080Z,10.20
2018-10-09T19:07:38.275Z,11.83
2018-10-09T19:10:07.515Z,11.30
2018-10-09T19:12:36.402Z,10.97
2018-10-09T19:15:05.519Z,11.13
2018-10-09T19:17:34.409Z,12.37
2018-10-09T19:20:03.284Z,11.53
2018-10-09T19:22:32.224Z,12.73
2018-10-09T19:25:07.018Z,12.00
2018-10-09T19:27:35.971Z,12.30
2018-10-09T19:30:05.235Z,11.23
2018-10-09T19:32:34.181Z,11.33
2018-10-09T19:35:03.892Z,11.67
2018-10-09T19:37:32.809Z,12.33
2018-10-09T19:40:01.786Z,12.23
2018-10-09T19:42:30.647Z,12.47
2018-10-09T19:44:59.586Z,13.50
2018-10-09T19:47:32.781Z,12.30
2018-10-09T19:50:01.647Z,13.80
2018-10-09T19:52:42.979Z,12.70
2018-10-09T19:55:11.974Z,11.63
2018-10-09T19:57:40.940Z,13.37
2018-10-09T20:00:09.896Z,12.77
2018-10-09T20:02:38.883Z,13.63
2018-10-09T20:05:07.861Z,13.43
2018-10-09T20:07:36.771Z,14.47
2018-10-09T20:10:05.734Z,13.17
2018-10-09T20:12:34.628Z,15.00
2018-10-09T20:15:03.573Z,14.47
2018-10-09T20:17:32.542Z,13.60
2018-10-09T20:20:01.499Z,14.77
2018-10-09T20:22:30.471Z,13.67
2018-10-09T20:24:59.389Z,14.97
2018-10-09T20:27:28.289Z,14.33
2018-10-09T20:29:57.201Z,13.73
2018-10-09T20:32:26.144Z,14.10
2018-10-09T20:34:55.065Z,14.40
2018-10-09T20:37:24.051Z,14.93
2018-10-09T20:39:52.971Z,15.47
2018-10-09T20:42:28.368Z,14.43
2018-10-09T20:44:57.332Z,15.20
2018-10-09T20:47:31.616Z,14.37
2018-10-09T20:50:00.499Z,15.23
2018-10-09T20:52:30.107Z,15.93
2018-10-09T20:54:59.048Z,15.33
2018-10-09T20:57:28.018Z,15.60
2018-10-09T20:59:56.941Z,15.43
2018-10-09T21:02:25.929Z,15.03
2018-10-09T21:04:54.942Z,15.03
2018-10-09T21:07:24.064Z,14.10
2018-10-09T21:09:53.013Z,14.37
2018-10-09T21:12:22.038Z,14.47
2018-10-09T21:14:50.935Z,14.93
2018-10-09T21:17:19.975Z,14.77
2018-10-09T21:19:49.111Z,14.87
2018-10-09T21:22:18.009Z,14.33
2018-10-09T21:24:46.941Z,14.30
2018-10-09T21:27:15.848Z,14.47
2018-10-09T21:29:44.819Z,14.87
2018-10-09T21:32:13.709Z,14.60
2018-10-09T21:34:42.597Z,13.77
2018-10-09T21:37:11.736Z,14.27
2018-10-09T21:39:40.611Z,13.83
2018-10-09T21:42:09.505Z,13.80
2018-10-09T21:44:38.604Z,15.23
2018-10-09T21:47:07.491Z,14.73
2018-10-09T21:49:36.393Z,13.87
2018-10-09T21:52:05.275Z,14.80
2018-10-09T21:54:34.267Z,14.73
2018-10-09T21:57:03.219Z,14.83
2018-10-09T21:59:32.180Z,14.20
2018-10-09T22:02:01.060Z,14.43
2018-10-09T22:04:29.970Z,15.07
2018-10-09T22:06:58.854Z,15.23
2018-10-09T22:09:27.728Z,15.13
2018-10-09T22:11:56.716Z,15.30
2018-10-09T22:14:25.632Z,14.37
2018-10-09T22:16:54.629Z,15.23
2018-10-09T22:19:23.592Z,14.63
2018-10-09T22:21:52.494Z,15.67
2018-10-09T22:24:21.508Z,15.77
2018-10-09T22:26:50.462Z,14.40
2018-10-09T22:29:19.399Z,16.47
2018-10-09T22:31:48.356Z,15.63
2018-10-09T22:34:17.251Z,15.73
2018-10-09T22:36:46.174Z,14.90
2018-10-09T22:39:15.102Z,16.00
2018-10-09T22:41:43.997Z,16.23
2018-10-09T22:44:12.931Z,15.43
2018-10-09T22:46:41.832Z,15.27
2018-10-09T22:49:10.707Z,15.17
2018-10-09T22:51:39.610Z,15.60
2018-10-09T22:54:08.532Z,16.37
2018-10-09T22:56:37.484Z,15.90
2018-10-09T22:59:06.495Z,14.57
2018-10-09T23:01:35.454Z,14.63
2018-10-09T23:04:04.362Z,16.40
2018-10-09T23:06:33.247Z,14.87
2018-10-09T23:09:02.132Z,15.57
2018-10-09T23:11:31.091Z,15.93
2018-10-09T23:14:00.132Z,15.30
2018-10-09T23:16:29.028Z,15.03
2018-10-09T23:18:58.007Z,16.13
2018-10-09T23:21:26.858Z,15.80
2018-10-09T23:23:55.764Z,16.33
2018-10-09T23:26:24.688Z,15.07
2018-10-09T23:28:53.696Z,16.93
2018-10-09T23:31:22.597Z,16.47
2018-10-09T23:33:51.566Z,16.43
2018-10-09T23:36:20.487Z,15.83
2018-10-09T23:38:49.521Z,16.60
2018-10-09T23:41:18.458Z,16.87
2018-10-09T23:43:47.330Z,16.93
2018-10-09T23:46:16.250Z,16.80
2018-10-09T23:49:48.692Z,16.63
2018-10-09T23:52:17.603Z,16.67
2018-10-09T23:54:46.500Z,16.67
2018-10-09T23:57:15.398Z,16.63
2018-10-09T23:59:44.296Z,18.57
